Time;durP1;ratioP1;P1;durP2;ratioP2;P2;SDS_P1;SDS_P2;PMS_P1;PMS_P2;Temp;Humidity;BMP_temperature;BMP_pressure;BME280_temperature;BME280_humidity;BME280_pressure;Samples;Min_cycle;Max_cycle;Signal;HPM_P1;HPM_P2
2022/08/19 00:01:20;;;;;;;11.63;7.05;;;;;;;22.65;72.97;94484.00;6116159;23;20184;-80
2022/08/19 00:03:47;;;;;;;8.75;7.15;;;;;;;22.60;73.46;94474.25;6115301;23;20289;-80
2022/08/19 00:06:14;;;;;;;11.07;7.22;;;;;;;22.68;72.07;94478.09;6116799;23;20187;-82
2022/08/19 00:08:41;;;;;;;17.17;7.10;;;;;;;22.72;72.00;94485.16;6118003;23;20169;-82
2022/08/19 00:11:08;;;;;;;12.05;7.35;;;;;;;22.70;73.38;94482.03;6117611;23;20804;-82
2022/08/19 00:13:35;;;;;;;16.25;7.43;;;;;;;22.74;74.21;94487.50;6116881;23;20234;-81
2022/08/19 00:16:02;;;;;;;16.55;7.32;;;;;;;22.75;73.87;94486.41;6117875;23;20203;-82
2022/08/19 00:18:32;;;;;;;18.05;7.97;;;;;;;22.73;74.25;94488.59;6117886;23;20658;-82
2022/08/19 00:21:00;;;;;;;12.50;7.32;;;;;;;22.73;74.28;94505.28;6118222;23;20172;-78
2022/08/19 00:23:27;;;;;;;12.63;6.90;;;;;;;22.68;74.15;94494.00;6114667;23;20206;-78
2022/08/19 00:25:54;;;;;;;14.98;7.50;;;;;;;22.62;73.69;94493.28;6114883;23;20200;-78
2022/08/19 00:28:21;;;;;;;9.55;6.60;;;;;;;22.72;73.33;94502.91;6115690;23;20168;-78
2022/08/19 00:30:48;;;;;;;12.32;7.47;;;;;;;22.76;72.24;94503.91;6116166;23;20206;-79
2022/08/19 00:33:16;;;;;;;16.40;7.25;;;;;;;22.70;72.92;94497.13;6115463;23;20173;-79
2022/08/19 00:35:44;;;;;;;12.38;6.70;;;;;;;22.71;72.50;94490.75;6114755;23;20197;-78
2022/08/19 00:38:11;;;;;;;10.40;6.95;;;;;;;22.63;73.17;94490.34;6115100;23;20511;-79
2022/08/19 00:40:38;;;;;;;13.23;7.43;;;;;;;22.57;72.63;94488.06;6115742;23;20183;-79
2022/08/19 00:43:10;;;;;;;12.18;7.80;;;;;;;22.53;72.75;94468.56;6115723;23;20550;-78
2022/08/19 00:45:37;;;;;;;10.95;7.18;;;;;;;22.57;73.57;94477.47;6114856;23;20182;-80
2022/08/19 00:48:05;;;;;;;11.18;7.30;;;;;;;22.53;73.08;94482.59;6116320;23;20176;-80
2022/08/19 00:50:32;;;;;;;15.25;6.82;;;;;;;22.43;73.00;94469.56;6117236;23;20234;-82
2022/08/19 00:53:03;;;;;;;11.82;7.40;;;;;;;22.54;73.97;94478.84;6118552;23;20248;-82
2022/08/19 00:55:33;;;;;;;12.75;7.05;;;;;;;22.51;74.16;94478.69;6114692;23;20181;-83
2022/08/19 00:58:03;;;;;;;9.20;6.80;;;;;;;22.47;73.83;94478.50;6118343;23;20647;-81
2022/08/19 01:00:32;;;;;;;8.60;6.90;;;;;;;22.41;74.71;94481.53;6117758;23;20167;-81
2022/08/19 01:03:00;;;;;;;10.38;7.07;;;;;;;22.26;75.09;94473.88;6117866;23;20168;-84
2022/08/19 01:05:29;;;;;;;17.15;8.23;;;;;;;22.16;74.91;94482.81;6114577;23;20175;-80
2022/08/19 01:07:59;;;;;;;10.65;6.95;;;;;;;22.11;74.85;94482.13;6115663;23;20176;-81
2022/08/19 01:10:31;;;;;;;15.35;7.47;;;;;;;22.10;75.91;94483.22;6118408;23;20172;-80
2022/08/19 01:13:00;;;;;;;15.40;7.40;;;;;;;22.04;76.28;94485.97;6117193;23;20157;-80
2022/08/19 01:15:31;;;;;;;14.77;7.25;;;;;;;21.95;76.65;94478.97;6115517;23;20742;-80
2022/08/19 01:18:02;;;;;;;15.80;7.53;;;;;;;21.96;77.13;94480.56;6116531;23;20214;-81
2022/08/19 01:20:29;;;;;;;9.00;7.57;;;;;;;21.92;77.77;94474.28;6117352;23;20498;-81
2022/08/19 01:22:59;;;;;;;11.57;7.22;;;;;;;21.83;77.63;94473.34;6117470;23;20226;-81
2022/08/19 01:25:31;;;;;;;15.32;7.68;;;;;;;21.82;78.11;94477.84;6116542;23;20618;-81
2022/08/19 01:27:58;;;;;;;13.60;7.05;;;;;;;21.79;77.36;94472.38;6116983;23;20243;-82
2022/08/19 01:30:29;;;;;;;13.35;7.18;;;;;;;21.75;78.15;94471.38;6117504;23;20669;-81
2022/08/19 01:32:56;;;;;;;11.95;7.47;;;;;;;;;;6117516;23;20236;-81
2022/08/19 01:35:25;;;;;;;8.90;7.20;;;;;;;21.98;77.02;94476.53;6116689;23;20203;-81
2022/08/19 01:37:53;;;;;;;12.70;7.15;;;;;;;21.98;76.45;94481.84;6116072;23;20710;-81
2022/08/19 01:40:24;;;;;;;10.45;6.80;;;;;;;22.00;76.46;94477.03;6117538;23;20515;-82
2022/08/19 01:42:52;;;;;;;12.43;7.10;;;;;;;22.01;76.25;94478.59;6117151;23;20834;-81
2022/08/19 01:45:21;;;;;;;13.07;7.57;;;;;;;22.01;76.61;94483.09;6116634;23;20171;-81
2022/08/19 01:47:49;;;;;;;12.38;7.50;;;;;;;21.93;77.06;94481.13;6115837;23;20177;-80
2022/08/19 01:50:17;;;;;;;10.07;7.30;;;;;;;21.92;76.79;94482.22;6116644;23;20627;-80
2022/08/19 01:52:44;;;;;;;11.65;7.57;;;;;;;21.80;76.28;94490.59;6116347;23;20176;-80
2022/08/19 01:55:14;;;;;;;14.77;8.05;;;;;;;21.78;75.95;94486.66;6116022;23;20254;-80
2022/08/19 01:57:46;;;;;;;12.95;8.60;;;;;;;21.75;76.44;94468.72;6114683;23;20180;-81
2022/08/19 02:00:16;;;;;;;14.75;8.57;;;;;;;21.79;75.70;94482.97;6116374;23;20153;-81
2022/08/19 02:02:43;;;;;;;11.55;9.27;;;;;;;21.77;75.86;94485.09;6116585;23;20194;-80
2022/08/19 02:05:10;;;;;;;20.40;9.75;;;;;;;21.79;75.89;94494.31;6115789;23;20168;-81
2022/08/19 02:07:38;;;;;;;15.35;9.45;;;;;;;21.79;76.83;94494.31;6116722;23;20168;-81
2022/08/19 02:10:06;;;;;;;17.70;9.55;;;;;;;21.78;77.36;94490.09;6116965;23;20173;-82
2022/08/19 02:12:32;;;;;;;15.65;9.40;;;;;;;21.77;77.63;94485.88;6116905;23;20647;-82
2022/08/19 02:15:02;;;;;;;12.55;9.48;;;;;;;21.77;77.91;94491.16;6116915;23;20179;-81
2022/08/19 02:17:29;;;;;;;13.10;8.88;;;;;;;21.64;77.04;94473.41;6116204;23;20255;-81
2022/08/19 02:19:56;;;;;;;18.15;8.55;;;;;;;21.67;77.51;94477.34;6116169;23;20226;-81
2022/08/19 02:22:24;;;;;;;18.73;8.70;;;;;;;21.61;78.26;94478.50;6115131;23;20176;-82
2022/08/19 02:24:50;;;;;;;14.50;9.27;;;;;;;21.49;78.84;94473.66;6114844;23;20194;-82
2022/08/19 02:27:17;;;;;;;14.88;9.05;;;;;;;21.56;78.91;94484.66;6116857;23;20598;-81
2022/08/19 02:29:46;;;;;;;17.52;8.80;;;;;;;21.44;79.12;94493.03;6116224;23;20176;-81
2022/08/19 02:32:14;;;;;;;13.88;9.00;;;;;;;21.47;79.92;94486.41;6116600;23;20173;-81
2022/08/19 02:34:41;;;;;;;13.23;9.25;;;;;;;21.48;79.83;94478.16;6116524;23;20184;-81
2022/08/19 02:38:24;;;;;;;22.08;9.70;;;;;;;21.45;80.15;94472.66;6116174;23;20200;-81
2022/08/19 02:39:54;;;;;;;13.13;9.18;;;;;;;21.34;80.71;94477.34;6115175;23;20168;-81
2022/08/19 02:42:21;;;;;;;14.88;8.43;;;;;;;21.20;81.11;94487.09;6116227;23;20287;-81
2022/08/19 02:44:48;;;;;;;10.77;8.10;;;;;;;21.09;81.70;94480.38;6117043;23;20169;-81
2022/08/19 02:47:18;;;;;;;12.18;8.10;;;;;;;21.08;81.95;94483.31;6115937;23;20172;-80
2022/08/19 02:49:45;;;;;;;10.93;7.95;;;;;;;21.03;82.09;94486.00;6115559;23;20176;-80
2022/08/19 02:52:12;;;;;;;14.00;7.93;;;;;;;21.02;81.98;94492.34;6116290;23;20218;-81
2022/08/19 02:54:39;;;;;;;12.13;7.95;;;;;;;20.95;82.16;94493.50;6117001;23;20172;-82
2022/08/19 02:57:07;;;;;;;12.77;7.75;;;;;;;20.89;81.77;94480.66;6116692;23;20598;-81
2022/08/19 02:59:35;;;;;;;15.13;8.45;;;;;;;20.98;82.13;94489.47;6116475;23;20239;-80
2022/08/19 03:02:02;;;;;;;11.95;8.40;;;;;;;20.92;81.99;94488.00;6116700;23;20176;-81
2022/08/19 03:04:30;;;;;;;13.13;8.75;;;;;;;20.92;82.65;94488.00;6117319;23;20179;-81
2022/08/19 03:06:57;;;;;;;18.88;9.07;;;;;;;20.86;83.06;94491.78;6117205;23;20639;-81
2022/08/19 03:09:24;;;;;;;18.00;8.95;;;;;;;20.88;82.57;94489.66;6116702;23;20178;-81
2022/08/19 03:11:51;;;;;;;15.77;9.50;;;;;;;20.90;82.20;94487.50;6115343;23;20766;-81
2022/08/19 03:14:18;;;;;;;18.45;9.07;;;;;;;20.87;81.70;94480.13;6116889;23;20172;-82
2022/08/19 03:16:47;;;;;;;15.35;8.65;;;;;;;20.87;82.35;94483.56;6116760;23;20242;-82
2022/08/19 03:19:16;;;;;;;16.33;8.70;;;;;;;20.76;83.00;94487.44;6117933;23;20176;-82
2022/08/19 03:21:45;;;;;;;20.42;9.18;;;;;;;20.65;83.77;94475.44;6115685;23;20524;-82
2022/08/19 03:24:13;;;;;;;15.63;9.55;;;;;;;20.58;84.14;94490.03;6117320;23;20180;-82
2022/08/19 03:26:41;;;;;;;15.57;10.05;;;;;;;20.59;83.91;94487.13;6117410;23;20698;-82
2022/08/19 03:29:10;;;;;;;11.07;8.90;;;;;;;20.62;84.06;94491.06;6115738;23;20179;-81
2022/08/19 03:31:38;;;;;;;12.20;9.52;;;;;;;20.61;83.59;94486.81;6114250;23;20557;-82
2022/08/19 03:34:05;;;;;;;12.27;9.20;;;;;;;20.58;83.61;94492.69;6117194;23;20176;-80
2022/08/19 03:36:32;;;;;;;15.15;9.70;;;;;;;20.63;83.66;94487.34;6117208;23;20196;-81
2022/08/19 03:39:02;;;;;;;12.95;9.60;;;;;;;20.61;84.19;94489.47;6117381;23;20196;-81
2022/08/19 03:41:32;;;;;;;14.55;9.07;;;;;;;20.67;83.75;94491.78;6115096;23;20172;-80
2022/08/19 03:44:00;;;;;;;14.43;10.02;;;;;;;20.65;84.08;94495.78;6115035;23;20173;-77
2022/08/19 03:46:28;;;;;;;16.77;9.75;;;;;;;20.68;84.17;94506.56;6115660;23;20172;-76
2022/08/19 03:48:57;;;;;;;13.30;9.68;;;;;;;20.77;83.93;94504.84;6116049;23;20179;-78
2022/08/19 03:51:30;;;;;;;16.92;11.02;;;;;;;20.77;84.07;94512.00;6115503;23;20962;-77
2022/08/19 03:53:59;;;;;;;21.63;10.15;;;;;;;20.75;83.51;94508.84;6115197;23;20199;-74
2022/08/19 03:56:28;;;;;;;20.88;9.98;;;;;;;20.76;83.15;94505.91;6115336;23;20938;-73
2022/08/19 03:58:56;;;;;;;12.55;9.65;;;;;;;20.79;82.63;94509.84;6116015;23;20207;-74
2022/08/19 04:01:26;;;;;;;14.13;10.02;;;;;;;20.79;83.25;94510.63;6115140;23;20172;-73
2022/08/19 04:03:53;;;;;;;29.65;10.60;;;;;;;20.82;83.49;94522.47;6114780;23;20481;-74
2022/08/19 04:06:23;;;;;;;21.65;10.63;;;;;;;20.79;83.57;94523.84;6115348;23;20251;-74
2022/08/19 04:08:53;;;;;;;20.20;10.32;;;;;;;20.85;82.52;94521.91;6115030;23;20180;-74
2022/08/19 04:11:24;;;;;;;15.32;11.05;;;;;;;20.86;82.69;94524.28;6109872;23;20160;-73
2022/08/19 04:13:54;;;;;;;20.92;10.73;;;;;;;20.91;82.49;94518.94;6104019;23;20172;-74
2022/08/19 04:16:22;;;;;;;22.05;11.45;;;;;;;20.94;81.92;94520.22;6113732;23;20407;-74
2022/08/19 04:18:50;;;;;;;16.63;11.13;;;;;;;20.80;82.60;94532.56;6114126;23;20172;-74
2022/08/19 04:21:19;;;;;;;14.85;10.07;;;;;;;20.81;82.16;94526.19;6115273;23;20173;-74
2022/08/19 04:23:46;;;;;;;15.45;9.77;;;;;;;20.94;80.35;94539.50;6113658;23;20172;-74
2022/08/19 04:26:15;;;;;;;21.02;9.90;;;;;;;20.99;81.06;94529.91;6114937;23;20219;-74
2022/08/19 04:28:42;;;;;;;16.50;10.45;;;;;;;20.94;81.67;94536.84;6114316;23;20182;-74
2022/08/19 04:31:15;;;;;;;20.42;10.82;;;;;;;20.94;82.78;94536.06;6114196;23;20505;-74
2022/08/19 04:33:42;;;;;;;22.40;10.30;;;;;;;20.94;83.61;94536.84;6112889;23;20406;-74
2022/08/19 04:36:16;;;;;;;23.48;11.15;;;;;;;20.90;83.46;94533.19;6114307;23;21065;-74
2022/08/19 04:38:43;;;;;;;20.33;10.93;;;;;;;20.88;83.73;94534.56;6114575;23;20187;-73
2022/08/19 04:43:54;;;;;;;14.98;10.38;;;;;;;20.91;83.04;94524.22;6111587;23;20249;-73
2022/08/19 04:46:22;;;;;;;16.13;9.52;;;;;;;20.98;81.71;94531.75;6115685;23;20176;-73
2022/08/19 04:48:49;;;;;;;17.65;10.55;;;;;;;21.01;82.19;94535.72;6114801;23;20249;-73
2022/08/19 04:51:16;;;;;;;21.27;10.70;;;;;;;21.06;82.13;94535.66;6115335;23;20172;-75
2022/08/19 04:53:43;;;;;;;13.85;10.65;;;;;;;21.05;82.52;94531.41;6113273;23;20172;-74
2022/08/19 04:56:13;;;;;;;16.88;10.45;;;;;;;21.05;82.43;94536.72;6113648;23;20207;-75
2022/08/19 04:58:43;;;;;;;13.68;9.25;;;;;;;21.06;81.82;94535.66;6113786;23;20172;-74
2022/08/19 05:01:12;;;;;;;14.10;9.32;;;;;;;21.12;81.29;94532.69;6114702;23;20635;-74
2022/08/19 05:03:40;;;;;;;13.57;9.02;;;;;;;21.23;81.13;94539.38;6111155;23;20177;-74
2022/08/19 05:06:09;;;;;;;17.05;10.27;;;;;;;21.28;81.04;94538.53;6114949;23;20165;-75
2022/08/19 05:08:40;;;;;;;12.40;9.50;;;;;;;21.26;81.00;94544.09;6114598;23;20173;-73
2022/08/19 05:11:11;;;;;;;17.92;9.68;;;;;;;21.22;80.82;94540.44;6114422;23;20191;-73
2022/08/19 05:13:38;;;;;;;16.58;9.38;;;;;;;21.28;80.87;94535.88;6112796;23;20196;-73
2022/08/19 05:16:05;;;;;;;15.32;9.45;;;;;;;21.38;80.93;94547.09;6114005;23;20176;-74
2022/08/19 05:24:08;;;;;;;17.83;10.32;;;;;;;21.47;80.67;94545.34;6114303;23;20512;-74
2022/08/19 05:26:35;;;;;;;19.60;9.95;;;;;;;21.38;81.40;94528.59;6114919;23;20196;-73
2022/08/19 05:29:02;;;;;;;17.05;10.90;;;;;;;21.46;81.50;94543.81;6114559;23;20180;-73
2022/08/19 05:31:28;;;;;;;20.30;11.00;;;;;;;21.54;81.56;94542.34;6114184;23;20207;-72
2022/08/19 05:33:55;;;;;;;25.92;11.70;;;;;;;21.55;81.54;94537.84;6113661;23;20172;-73
2022/08/19 05:36:23;;;;;;;18.17;11.25;;;;;;;21.61;82.19;94548.06;6114624;23;20196;-74
2022/08/19 05:38:52;;;;;;;15.88;11.00;;;;;;;21.86;81.24;94544.22;6114226;23;20179;-74
2022/08/19 05:41:20;;;;;;;18.17;11.20;;;;;;;22.02;80.44;94545.53;6113703;23;20172;-73
2022/08/19 05:43:47;;;;;;;19.27;11.07;;;;;;;22.08;79.74;94546.25;6113398;23;20176;-72
2022/08/19 05:46:18;;;;;;;21.95;11.35;;;;;;;22.08;79.96;94549.66;6114385;23;20491;-76
2022/08/19 05:48:46;;;;;;;23.00;11.93;;;;;;;22.07;79.94;94547.31;6115592;23;20188;-73
2022/08/19 05:51:13;;;;;;;19.65;11.65;;;;;;;22.10;79.89;94539.59;6115312;23;20179;-73
2022/08/19 05:53:42;;;;;;;21.33;12.43;;;;;;;22.16;79.59;94542.94;6114465;23;20596;-73
2022/08/19 05:56:13;;;;;;;19.73;12.65;;;;;;;22.23;79.93;94538.03;6114217;23;20176;-74
2022/08/19 05:58:41;;;;;;;22.50;12.43;;;;;;;22.47;78.44;94538.63;6115429;23;20161;-74
2022/08/19 06:01:12;;;;;;;19.58;11.93;;;;;;;22.68;77.47;94544.34;6115027;23;20168;-73
2022/08/19 06:03:39;;;;;;;24.30;12.30;;;;;;;22.79;76.98;94558.97;6113733;23;20176;-74
2022/08/19 06:06:07;;;;;;;23.83;12.10;;;;;;;22.77;76.38;94555.84;6114586;23;20531;-73
2022/08/19 06:08:35;;;;;;;24.60;11.60;;;;;;;22.81;76.32;94549.63;6114812;23;20173;-74
2022/08/19 06:11:20;;;;;;;19.13;11.50;;;;;;;23.08;75.02;94554.91;6114495;23;20200;-81
2022/08/19 06:13:50;;;;;;;17.50;11.88;;;;;;;23.26;72.62;94555.06;6112391;23;20168;-77
2022/08/19 06:16:22;;;;;;;21.70;11.70;;;;;;;23.25;72.69;94551.59;6113991;23;20222;-74
2022/08/19 06:18:51;;;;;;;24.77;10.80;;;;;;;23.25;73.96;94559.56;6114332;23;20163;-73
2022/08/19 06:21:18;;;;;;;17.17;11.00;;;;;;;23.23;72.75;94558.31;6113954;23;20203;-74
2022/08/19 06:23:47;;;;;;;16.45;10.38;;;;;;;23.16;72.74;94553.41;6112753;23;20196;-75
2022/08/19 06:26:15;;;;;;;19.17;10.25;;;;;;;23.14;72.30;94553.69;6113685;23;20270;-75
2022/08/19 06:28:45;;;;;;;19.83;10.15;;;;;;;23.15;73.10;94543.88;6114396;23;20169;-77
2022/08/19 06:31:13;;;;;;;14.25;10.15;;;;;;;23.33;72.95;94556.19;6114410;23;20514;-76
2022/08/19 06:33:41;;;;;;;17.92;9.77;;;;;;;23.35;72.35;94542.66;6113027;23;20298;-76
2022/08/19 06:36:16;;;;;;;16.48;9.85;;;;;;;23.66;70.86;94559.47;6113695;23;20903;-76
2022/08/19 06:38:43;;;;;;;15.13;9.75;;;;;;;24.03;68.34;94561.72;6115445;23;20162;-76
2022/08/19 06:41:11;;;;;;;14.70;9.20;;;;;;;24.27;67.26;94556.09;6114246;23;20173;-75
2022/08/19 06:43:37;;;;;;;19.92;9.98;;;;;;;24.29;67.35;94553.91;6113621;23;20191;-75
2022/08/19 06:46:11;;;;;;;19.65;9.32;;;;;;;24.29;67.78;94553.91;6114764;23;20165;-75
2022/08/19 06:48:38;;;;;;;13.77;9.65;;;;;;;24.33;67.93;94557.50;6114743;23;20164;-76
2022/08/19 06:51:05;;;;;;;15.57;9.73;;;;;;;24.27;68.09;94556.09;6115162;23;20168;-75
2022/08/19 06:53:32;;;;;;;20.98;10.15;;;;;;;24.32;67.94;94555.19;6112732;23;20616;-76
2022/08/19 06:56:01;;;;;;;18.63;10.60;;;;;;;24.36;66.88;94553.50;6113458;23;20635;-76
2022/08/19 06:58:31;;;;;;;19.70;10.07;;;;;;;24.38;66.53;94557.41;6114683;23;20223;-75
2022/08/19 07:01:00;;;;;;;22.75;11.68;;;;;;;24.40;66.65;94552.56;6115062;23;20172;-76
2022/08/19 07:03:31;;;;;;;18.73;11.82;;;;;;;24.39;65.87;94556.28;6113700;23;20169;-76
2022/08/19 07:05:58;;;;;;;16.48;10.90;;;;;;;24.63;65.22;94564.69;6113346;23;20172;-76
2022/08/19 07:08:26;;;;;;;14.65;10.80;;;;;;;24.89;64.25;94564.78;6114304;23;20548;-75
2022/08/19 07:10:54;;;;;;;25.38;11.52;;;;;;;24.98;63.98;94554.16;6115072;23;20918;-75
2022/08/19 07:13:22;;;;;;;16.92;10.73;;;;;;;25.17;63.00;94563.44;6113342;23;20173;-75
2022/08/19 07:15:50;;;;;;;21.02;10.40;;;;;;;25.19;62.69;94563.91;6111783;23;20172;-75
2022/08/19 07:18:18;;;;;;;18.70;11.98;;;;;;;25.21;62.58;94560.94;6114327;23;20204;-75
2022/08/19 07:20:47;;;;;;;17.58;11.02;;;;;;;25.24;62.24;94562.97;6114391;23;20177;-74
2022/08/19 07:23:14;;;;;;;17.23;10.35;;;;;;;25.21;62.77;94555.59;6114049;23;20242;-75
2022/08/19 07:25:41;;;;;;;14.02;10.20;;;;;;;25.29;62.17;94568.91;6113318;23;20175;-76
2022/08/19 07:28:09;;;;;;;15.77;10.25;;;;;;;25.26;62.48;94566.88;6113914;23;20616;-75
2022/08/19 07:30:40;;;;;;;16.00;9.52;;;;;;;25.36;62.57;94563.16;6114871;23;20203;-75
2022/08/19 07:33:07;;;;;;;18.95;10.85;;;;;;;25.43;62.00;94568.78;6113586;23;20164;-74
2022/08/19 07:35:34;;;;;;;18.88;10.18;;;;;;;25.54;62.54;94558.63;6112565;23;20180;-74
2022/08/19 07:38:03;;;;;;;17.05;9.65;;;;;;;25.77;61.38;94563.47;6113332;23;20199;-74
2022/08/19 07:40:31;;;;;;;17.05;10.00;;;;;;;25.98;59.75;94557.47;6115219;23;20175;-75
2022/08/19 07:42:58;;;;;;;14.45;9.45;;;;;;;26.17;59.20;94556.06;6115261;23;20192;-74
2022/08/19 07:45:25;;;;;;;16.90;9.30;;;;;;;26.24;58.98;94561.69;6114113;23;20172;-74
2022/08/19 07:47:53;;;;;;;17.48;9.52;;;;;;;26.22;58.59;94560.44;6113047;23;20169;-75
2022/08/19 07:50:21;;;;;;;17.77;8.63;;;;;;;26.19;58.12;94561.06;6114797;23;20172;-81
2022/08/19 07:52:49;;;;;;;12.98;9.13;;;;;;;26.31;58.86;94550.53;6115939;23;20176;-80
2022/08/19 07:55:19;;;;;;;13.77;8.75;;;;;;;26.35;57.47;94554.13;6115128;23;20251;-76
2022/08/19 07:57:46;;;;;;;14.02;8.80;;;;;;;26.41;57.19;94564.28;6112800;23;20180;-76
2022/08/19 08:00:15;;;;;;;18.80;9.27;;;;;;;26.38;56.90;94558.81;6113453;23;20169;-77
2022/08/19 08:02:42;;;;;;;10.57;8.20;;;;;;;26.44;58.23;94563.66;6114378;23;20171;-76
2022/08/19 08:10:54;;;;;;;10.30;7.85;;;;;;;26.73;56.97;94567.44;6206291;23;20584;-79
2022/08/19 08:13:21;;;;;;;13.23;8.90;;;;;;;26.68;56.53;94559.63;6207123;23;20171;-75
2022/08/19 08:15:48;;;;;;;13.27;9.38;;;;;;;26.67;55.66;94558.06;6164683;23;20204;-74
2022/08/19 08:18:15;;;;;;;13.32;9.18;;;;;;;26.63;55.66;94549.94;6114987;23;20279;-74
2022/08/19 08:20:42;;;;;;;12.48;8.52;;;;;;;26.75;55.05;94550.06;6115898;23;20237;-74
2022/08/19 08:23:25;;;;;;;14.32;8.82;;;;;;;26.78;55.09;94551.28;6115394;23;20247;-74
2022/08/19 08:25:54;;;;;;;18.17;8.90;;;;;;;26.75;54.79;94544.72;6112873;23;20296;-75
2022/08/19 08:28:22;;;;;;;15.38;8.63;;;;;;;26.79;56.56;94544.84;6115093;23;20163;-75
2022/08/19 08:30:50;;;;;;;17.88;8.93;;;;;;;26.89;56.71;94542.63;6114694;23;20263;-75
2022/08/19 08:33:19;;;;;;;26.35;17.75;;;;;;;27.27;55.81;94544.41;6114585;23;20179;-75
2022/08/19 08:35:46;;;;;;;19.23;8.52;;;;;;;27.52;53.92;94544.25;6112693;23;20180;-74
2022/08/19 08:38:14;;;;;;;13.27;8.07;;;;;;;27.72;52.04;94537.31;6114868;23;20203;-75
2022/08/19 08:40:49;;;;;;;13.40;7.88;;;;;;;27.81;50.88;94545.25;6115010;23;20173;-75
2022/08/19 08:43:26;;;;;;;15.95;7.97;;;;;;;27.88;49.45;94546.28;6115606;23;20156;-74
2022/08/19 08:46:00;;;;;;;9.98;7.55;;;;;;;28.02;49.04;94538.75;6113923;23;20198;-74
2022/08/19 08:48:38;;;;;;;11.63;7.25;;;;;;;28.10;50.05;94540.59;6115913;23;20157;-74
2022/08/19 08:51:11;;;;;;;13.35;7.60;;;;;;;28.24;49.72;94534.16;6115081;23;20175;-74
2022/08/19 08:53:38;;;;;;;10.55;6.97;;;;;;;28.36;49.98;94534.19;6113216;23;20552;-75
2022/08/19 08:56:08;;;;;;;10.20;6.50;;;;;;;28.47;48.74;94533.41;6114930;23;20184;-74
2022/08/19 08:58:47;;;;;;;15.15;6.45;;;;;;;28.56;47.88;94528.75;6115749;23;20222;-74
2022/08/19 09:01:30;;;;;;;14.70;6.38;;;;;;;28.68;47.35;94531.47;6116105;23;20164;-75
2022/08/19 09:07:27;;;;;;;9.43;6.07;;;;;;;29.00;48.71;94515.59;6100770;23;20176;-76
2022/08/19 09:10:04;;;;;;;14.88;6.90;;;;;;;29.14;48.09;94522.16;6115417;23;20177;-76
2022/08/19 09:12:39;;;;;;;8.13;5.72;;;;;;;29.35;46.63;94518.56;6115918;23;20160;-75
2022/08/19 09:15:21;;;;;;;14.10;5.28;;;;;;;29.55;44.87;94522.97;6114902;23;20163;-77
2022/08/19 09:17:48;;;;;;;8.00;5.70;;;;;;;29.66;43.27;94524.81;6113598;23;20962;-75
2022/08/19 09:20:20;;;;;;;6.63;5.22;;;;;;;29.76;42.19;94518.16;6114299;23;20172;-75
2022/08/19 09:22:48;;;;;;;12.00;5.78;;;;;;;29.79;42.50;94515.59;6115484;23;20167;-75
2022/08/19 09:25:26;;;;;;;8.50;5.63;;;;;;;29.87;42.81;94521.19;6115078;23;20697;-76
2022/08/19 09:27:56;;;;;;;11.27;5.32;;;;;;;29.97;41.73;94520.69;6113467;23;20286;-75
2022/08/19 09:30:26;;;;;;;9.98;4.40;;;;;;;30.03;37.94;94514.72;6115603;23;20172;-76
2022/08/19 09:32:54;;;;;;;6.38;4.43;;;;;;;30.06;40.22;94505.22;6115786;23;20172;-76
2022/08/19 09:35:23;;;;;;;6.57;4.70;;;;;;;30.04;41.78;94510.94;6115403;23;20195;-76
2022/08/19 09:37:51;;;;;;;6.18;4.75;;;;;;;30.15;39.97;94505.84;6113717;23;20196;-76
2022/08/19 09:40:18;;;;;;;8.30;4.85;;;;;;;30.31;39.71;94503.94;6115752;23;20165;-77
2022/08/19 09:42:47;;;;;;;5.18;4.57;;;;;;;30.48;37.54;94511.66;6115679;23;20561;-77
2022/08/19 09:45:15;;;;;;;8.15;4.40;;;;;;;30.69;36.84;94509.50;6115144;23;20576;-76
2022/08/19 09:47:44;;;;;;;5.95;4.45;;;;;;;30.95;37.52;94514.34;6113687;23;20211;-76
2022/08/19 09:50:13;;;;;;;6.68;4.32;;;;;;;31.13;37.27;94510.13;6114656;23;20173;-77
2022/08/19 09:52:41;;;;;;;5.90;4.30;;;;;;;31.16;39.05;94508.66;6115070;23;20485;-76
2022/08/19 09:55:10;;;;;;;8.25;4.43;;;;;;;31.31;37.05;94503.22;6114945;23;20210;-76
2022/08/19 09:57:37;;;;;;;6.70;4.43;;;;;;;31.49;35.70;94509.00;6113952;23;20192;-76
2022/08/19 10:00:08;;;;;;;5.68;4.38;;;;;;;31.39;36.55;94504.16;6114596;23;20246;-76
2022/08/19 10:02:36;;;;;;;6.00;4.70;;;;;;;31.55;36.29;94499.50;6114702;23;20187;-76
2022/08/19 10:07:50;;;;;;;5.97;4.30;;;;;;;31.81;36.16;94494.25;6113294;23;20160;-76
2022/08/19 10:10:17;;;;;;;7.22;3.92;;;;;;;32.01;33.67;94497.69;6114296;23;20190;-76
2022/08/19 10:12:46;;;;;;;7.80;4.55;;;;;;;32.12;34.46;94497.94;6113651;23;20251;-76
2022/08/19 10:15:12;;;;;;;4.70;4.28;;;;;;;32.30;35.02;94491.72;6114686;23;20172;-76
2022/08/19 10:17:39;;;;;;;6.43;4.65;;;;;;;32.56;34.17;94489.09;6113250;23;20196;-76
2022/08/19 10:20:09;;;;;;;8.77;4.60;;;;;;;32.75;34.55;94482.06;6114507;23;20779;-76
2022/08/19 10:22:37;;;;;;;8.57;5.18;;;;;;;33.02;33.42;94495.16;6114926;23;20290;-76
2022/08/19 10:25:06;;;;;;;6.78;4.70;;;;;;;33.28;32.41;94490.91;6115597;23;20254;-76
2022/08/19 10:27:32;;;;;;;7.63;4.72;;;;;;;33.45;31.96;94477.66;6113606;23;20207;-76
2022/08/19 10:29:59;;;;;;;8.93;5.10;;;;;;;33.61;31.97;94480.97;6113992;23;20670;-76
2022/08/19 10:32:27;;;;;;;8.40;4.95;;;;;;;33.78;29.81;94484.22;6114361;23;20180;-76
2022/08/19 10:34:56;;;;;;;6.53;4.60;;;;;;;33.72;30.41;94478.38;6114511;23;20176;-76
2022/08/19 10:37:24;;;;;;;7.38;4.60;;;;;;;33.74;31.13;94478.78;6113693;23;20173;-76
2022/08/19 10:39:51;;;;;;;5.38;4.72;;;;;;;33.86;30.26;94465.06;6113449;23;20176;-76
2022/08/19 10:42:18;;;;;;;8.65;4.78;;;;;;;33.94;30.87;94476.72;6114851;23;20175;-76
2022/08/19 10:44:46;;;;;;;9.65;4.60;;;;;;;33.98;31.83;94480.97;6115260;23;20172;-76
2022/08/19 10:47:13;;;;;;;7.65;4.20;;;;;;;33.93;32.35;94469.75;6114670;23;20173;-76
2022/08/19 10:52:36;;;;;;;6.82;5.30;;;;;;;33.73;32.65;94469.16;6114453;23;20167;-76
2022/08/19 10:57:52;;;;;;;10.65;6.38;;;;;;;34.43;31.91;94466.38;6113237;23;20192;-76
2022/08/19 11:00:19;;;;;;;22.95;11.43;;;;;;;34.76;31.93;94468.19;6114558;23;20164;-80
2022/08/19 11:02:46;;;;;;;14.10;6.82;;;;;;;35.07;30.60;94472.25;6115383;23;20179;-76
2022/08/19 11:05:14;;;;;;;9.55;5.20;;;;;;;34.94;29.76;94468.31;6114652;23;20169;-76
2022/08/19 11:07:42;;;;;;;8.32;5.22;;;;;;;34.98;29.93;94469.13;6111654;23;20168;-76
2022/08/19 11:10:13;;;;;;;11.30;5.22;;;;;;;34.75;31.23;94464.72;6113334;23;20172;-76
2022/08/19 11:12:41;;;;;;;6.13;4.50;;;;;;;35.11;31.41;94464.97;6113142;23;20598;-76
2022/08/19 11:15:10;;;;;;;9.35;4.93;;;;;;;35.42;29.71;94460.88;6112364;23;20168;-76
2022/08/19 11:17:40;;;;;;;8.57;5.10;;;;;;;35.54;28.42;94461.31;6112403;23;20679;-77
2022/08/19 11:20:08;;;;;;;8.35;4.75;;;;;;;35.72;28.67;94464.09;6112484;23;20177;-76
2022/08/19 11:22:36;;;;;;;8.73;5.28;;;;;;;36.02;28.63;94459.13;6113105;23;20183;-76
2022/08/19 11:25:03;;;;;;;7.38;4.85;;;;;;;36.09;29.91;94461.91;6114466;23;20168;-76
2022/08/19 11:27:31;;;;;;;6.13;4.97;;;;;;;36.20;29.64;94462.69;6112563;23;20196;-75
2022/08/19 11:29:58;;;;;;;7.97;4.97;;;;;;;36.34;29.05;94461.91;6112118;23;20169;-76
2022/08/19 11:32:25;;;;;;;11.13;5.18;;;;;;;36.63;28.38;94449.94;6113501;23;20244;-76
2022/08/19 11:34:52;;;;;;;5.45;4.40;;;;;;;36.63;28.42;94455.34;6114353;23;20200;-76
2022/08/19 11:37:19;;;;;;;10.20;4.60;;;;;;;36.22;29.13;94452.22;6114096;23;20172;-76
2022/08/19 11:39:46;;;;;;;6.47;4.53;;;;;;;36.25;28.65;94450.72;6113030;23;20196;-76
2022/08/19 11:44:58;;;;;;;7.45;4.47;;;;;;;36.24;29.25;94446.44;6159915;23;20551;-76
2022/08/19 11:47:26;;;;;;;8.75;4.38;;;;;;;36.35;28.22;94453.41;6115143;23;20815;-77
2022/08/19 11:49:53;;;;;;;8.15;5.13;;;;;;;36.69;27.56;94444.91;6114387;23;20726;-77
2022/08/19 11:52:20;;;;;;;11.60;4.78;;;;;;;36.93;26.88;94444.09;6115009;23;20685;-75
2022/08/19 11:54:46;;;;;;;8.07;4.65;;;;;;;37.27;26.96;94442.47;6115483;23;20169;-76
2022/08/19 11:57:16;;;;;;;7.75;4.90;;;;;;;37.29;27.02;94440.13;6115790;23;20172;-76
2022/08/19 11:59:43;;;;;;;6.97;5.45;;;;;;;37.39;26.00;94441.28;6113646;23;20211;-76
2022/08/19 12:02:11;;;;;;;5.75;4.80;;;;;;;37.08;26.69;94434.03;6115562;23;20172;-76